Terminal Aerodrome Forecast
Issued by NWS Flagstaff, AZ

Home | Current Version | Previous Version | Text Only | Print | Product List | Glossary On
Versions: 1 2 3 4 5 6 7 8 9 10 11 12 13 14
000
FTUS45 KFGZ 232338
TAFINW
TAF
KINW 232338Z 2400/2424 33013G22KT 5SM -SHSN BKN030
      TEMPO 2400/2402 1SM -SN OVC020
     FM240300 26015KT P6SM SCT070
     FM241000 26008KT P6SM FEW100=

USA.gov is the U.S. government's official web portal to all federal, state and local government web resources and services.